Nearby METAR Reports

 

KUCP - New Castle Muni, Pennsylvania, USA
Distance from station: ENE 8mi, 13km
Updated: Sun, 20-Jun-2021 2:56am EDT
Mist, Clear
Mist, Clear
 Wind from SSW
Wind: SSW 3 mph , 6 km/h
Temperature: 63°F , 17°C
Dew Point: 63°F , 17°C
Humidity: 100%
Barometer: 29.81 inHg , 1009.5 hPa
Summary: Mist
Clouds: Clear
Visibility: 4 miles , 6 km
2021/06/20 06:56 KUCP 200656Z AUTO 20003KT 4SM BR CLR 17/17 A2981 RMK AO2 SLP103 T01720172
KBVI - Beaver Falls Arp, Pennsylvania, USA
Distance from station: SSE 16mi, 26km
Updated: Sun, 20-Jun-2021 3:35am EDT
Mostly cloudy
Mostly cloudy
 Wind from S
Wind: S 3 mph , 6 km/h
Temperature: 66°F , 19°C
Dew Point: 64°F , 18°C
Humidity: 94%
Barometer: 29.81 inHg , 1009.5 hPa
Clouds: Mostly cloudy
Visibility: 10 miles , 16 km
Cloud details: Partly cloudy 3100 ft
Mostly cloudy 11000 ft
2021/06/20 07:35 KBVI 200735Z AUTO 17003KT 10SM SCT031 BKN110 19/18 A2981 RMK AO2 LTG DSNT S T01900183
 
KYNG - Youngstown, Ohio, USA
Distance from station: NNW 20mi, 33km
Updated: Sun, 20-Jun-2021 2:51am EDT
Partly cloudy
Partly cloudy
 Wind from SSW
Wind: SSW 8 mph , 13 km/h
Temperature: 66°F , 19°C
Dew Point: 64°F , 18°C
Humidity: 94%
Barometer: 29.81 inHg , 1009.5 hPa
Clouds: Partly cloudy
Visibility: 10 miles , 16 km
Cloud details: Few Clouds 3500 ft
Partly cloudy 8000 ft
2021/06/20 06:51 KYNG 200651Z 21007KT 10SM FEW035 SCT080 19/18 A2981 RMK AO2 SLP088 T01940178
KBTP - Butler Co., Pennsylvania, USA
Distance from station: ESE 34mi, 55km
Updated: Sun, 20-Jun-2021 2:56am EDT
Clear
Clear
 Wind from SW
Wind: SW 5 mph , 7 km/h
Temperature: 66°F , 19°C
Dew Point: 64°F , 18°C
Humidity: 94%
Barometer: 29.83 inHg , 1010.2 hPa
Clouds: Clear
Visibility: 10 miles , 16 km
2021/06/20 06:56 KBTP 200656Z AUTO 23004KT 10SM CLR 19/18 A2983 RMK AO2 SLP098 T01890183
 
KPIT - Pittsburgh, Pennsylvania, USA
Distance from station: SSE 36mi, 57km
Updated: Sun, 20-Jun-2021 2:51am EDT
Few Clouds
Few Clouds
 Wind from SSW
Wind: SSW 7 mph , 11 km/h
Temperature: 70°F , 21°C
Dew Point: 64°F , 18°C
Humidity: 83%
Barometer: 29.82 inHg , 1009.8 hPa
Clouds: Few Clouds
Visibility: 10 miles , 16 km
Cloud details: Few Clouds 4000 ft
Few Clouds 25000 ft
2021/06/20 06:51 KPIT 200651Z 21006KT 10SM FEW040 FEW250 21/18 A2982 RMK AO2 SLP097 T02060183 $
KPOV - Ravena/Portage, Ohio, USA
Distance from station: WNW 40mi, 65km
Updated: Sun, 20-Jun-2021 3:35am EDT
Overcast
Overcast
 Wind from SW
Wind: SW 3 mph , 6 km/h
Temperature: 68°F , 20°C
Dew Point: 63°F , 17°C
Humidity: 83%
Barometer: 29.79 inHg , 1008.8 hPa
Clouds: Overcast
Visibility: 10 miles , 16 km
Cloud details: Overcast 11000 ft
2021/06/20 07:35 KPOV 200735Z AUTO 23003KT 10SM OVC110 20/17 A2979 RMK AO2 T01970173 PWINO
 
KFKL - Franklin, Pennsylvania, USA
Distance from station: NE 45mi, 72km
Updated: Sun, 20-Jun-2021 3:22am EDT
Mostly cloudy
Mostly cloudy
 
Temperature: 63°F , 17°C
Dew Point: 63°F , 17°C
Humidity: 100%
Clouds: Mostly cloudy
Visibility: 10 miles , 16 km
Cloud details: Mostly cloudy 2700 ft
Mostly cloudy 10000 ft
2021/06/20 07:22 KFKL 200722Z AUTO 10SM BKN027 BKN100 17/17 RMK AO2 LTG DSNT NW $
KCAK - Akron, Ohio, USA
Distance from station: W 47mi, 76km
Updated: Sun, 20-Jun-2021 2:51am EDT
Overcast
Overcast
 Wind from SW
Wind: SW 6 mph , 9 km/h
Temperature: 70°F , 21°C
Dew Point: 64°F , 18°C
Humidity: 83%
Clouds: Overcast
Visibility: 10 miles , 16 km
Cloud details: Few Clouds 3200 ft
Overcast 11000 ft
2021/06/20 06:51 KCAK 200651Z 22005KT 10SM FEW032 OVC110 21/18 RMK AO2 SLPNO T02110183 $
 
KAKR - Akron (fulton), Ohio, USA
Distance from station: W 48mi, 77km
Updated: Sun, 20-Jun-2021 2:54am EDT
Overcast
Overcast
 Wind from SSW
Wind: SSW 3 mph , 6 km/h
Temperature: 72°F , 22°C
Dew Point: 64°F , 18°C
Humidity: 78%
Barometer: 29.79 inHg , 1008.8 hPa
Clouds: Overcast
Visibility: 10 miles , 16 km
Cloud details: Overcast 11000 ft
2021/06/20 06:54 KAKR 200654Z AUTO 21003KT 10SM OVC110 22/18 A2979 RMK AO2 SLP080 T02220178
KGKJ - Meadville, Pennsylvania, USA
Distance from station: NNE 49mi, 79km
Updated: Sun, 20-Jun-2021 3:46am EDT
Overcast
Overcast
 Wind from SSE
Wind: SSE 3 mph , 6 km/h
Temperature: 64°F , 18°C
Dew Point: 63°F , 17°C
Humidity: 94%
Barometer: 29.81 inHg , 1009.5 hPa
Clouds: Overcast
Visibility: 9 miles , 14 km
Cloud details: Mostly cloudy 2900 ft
Mostly cloudy 3900 ft
Overcast 6500 ft
2021/06/20 07:46 KGKJ 200746Z AUTO 16003KT 9SM BKN029 BKN039 OVC065 18/17 A2981 RMK AO2 LTG DSNT NW RAB09E33 TSB09E24 P0021 T01780172